createdAt,value
2018-03-08T00:00:51.999Z,20.30
2018-03-08T00:03:19.624Z,19.80
2018-03-08T00:05:47.208Z,19.50
2018-03-08T00:08:15.555Z,20.58
2018-03-08T00:10:43.138Z,18.87
2018-03-08T00:13:10.742Z,20.37
2018-03-08T00:15:38.322Z,20.62
2018-03-08T00:18:05.902Z,20.45
2018-03-08T00:20:33.477Z,20.80
2018-03-08T00:23:01.054Z,20.70
2018-03-08T00:25:28.634Z,21.35
2018-03-08T00:27:56.978Z,20.20
2018-03-08T00:30:24.557Z,20.55
2018-03-08T00:32:52.134Z,20.75
2018-03-08T00:35:19.715Z,20.27
2018-03-08T00:37:48.063Z,21.67
2018-03-08T00:40:15.650Z,21.10
2018-03-08T00:42:43.230Z,20.40
2018-03-08T00:45:11.578Z,17.80
2018-03-08T00:47:39.154Z,18.33
2018-03-08T00:50:06.742Z,19.37
2018-03-08T00:52:35.086Z,19.77
2018-03-08T00:55:02.698Z,18.80
2018-03-08T00:57:30.284Z,18.52
2018-03-08T00:59:57.863Z,18.62
2018-03-08T01:02:25.447Z,18.48
2018-03-08T01:04:53.031Z,18.58
2018-03-08T01:07:21.387Z,19.50
2018-03-08T01:09:48.970Z,18.35
2018-03-08T01:12:16.550Z,20.62
2018-03-08T01:14:44.895Z,18.65
2018-03-08T01:17:12.518Z,18.95
2018-03-08T01:19:40.102Z,19.52
2018-03-08T01:22:07.678Z,20.50
2018-03-08T01:24:35.311Z,19.80
2018-03-08T01:27:02.900Z,18.30
2018-03-08T01:29:30.486Z,18.35
2018-03-08T01:31:58.067Z,18.80
2018-03-08T01:34:25.650Z,19.23
2018-03-08T01:36:54.003Z,17.85
2018-03-08T01:39:21.583Z,16.62
2018-03-08T01:41:49.159Z,18.83
2018-03-08T01:44:17.502Z,17.35
2018-03-08T01:46:45.078Z,17.52
2018-03-08T01:49:12.654Z,18.00
2018-03-08T01:51:52.015Z,16.95
2018-03-08T01:54:20.359Z,16.73
2018-03-08T01:56:47.938Z,17.08
2018-03-08T01:59:15.518Z,17.87
2018-03-08T02:01:43.858Z,16.05
2018-03-08T02:04:11.439Z,17.52
2018-03-08T02:06:39.019Z,16.80
2018-03-08T02:09:06.635Z,16.42
2018-03-08T02:11:34.218Z,16.52
2018-03-08T02:14:01.795Z,16.23
2018-03-08T02:16:29.375Z,17.45
2018-03-08T02:18:56.954Z,16.70
2018-03-08T02:21:25.346Z,15.98
2018-03-08T02:23:53.691Z,17.25
2018-03-08T02:26:21.270Z,17.10
2018-03-08T02:28:48.903Z,15.65
2018-03-08T02:31:16.479Z,15.82
2018-03-08T02:33:44.058Z,15.65
2018-03-08T02:36:11.642Z,15.70
2018-03-08T02:38:39.986Z,16.08
2018-03-08T02:41:07.567Z,17.15
2018-03-08T02:43:35.152Z,15.93
2018-03-08T02:46:03.501Z,16.27
2018-03-08T02:48:31.083Z,15.15
2018-03-08T02:50:58.674Z,15.75
2018-03-08T02:53:26.261Z,17.42
2018-03-08T02:55:53.852Z,16.37
2018-03-08T02:58:21.430Z,16.15
2018-03-08T03:00:49.016Z,15.80
2018-03-08T03:03:17.367Z,14.10
2018-03-08T03:05:45.017Z,15.43
2018-03-08T03:08:12.603Z,15.15
2018-03-08T03:10:40.187Z,14.98
2018-03-08T03:13:07.766Z,14.63
2018-03-08T03:15:36.111Z,15.20
2018-03-08T03:18:03.695Z,14.63
2018-03-08T03:20:31.277Z,14.70
2018-03-08T03:22:59.623Z,13.25
2018-03-08T03:25:27.203Z,15.32
2018-03-08T03:27:54.787Z,13.25
2018-03-08T03:30:23.172Z,16.50
2018-03-08T03:32:51.514Z,14.20
2018-03-08T03:35:19.099Z,15.20
2018-03-08T03:37:46.681Z,14.73
2018-03-08T03:42:49.034Z,14.20
2018-03-08T03:45:16.614Z,14.55
2018-03-08T03:47:44.194Z,12.77
2018-03-08T03:50:11.771Z,14.70
2018-03-08T03:52:40.119Z,14.57
2018-03-08T03:55:07.738Z,14.87
2018-03-08T03:57:35.342Z,13.88
2018-03-08T04:00:02.991Z,13.65
2018-03-08T04:02:30.566Z,13.40
2018-03-08T04:04:58.178Z,13.07
2018-03-08T04:07:26.523Z,14.35
2018-03-08T04:09:54.103Z,13.27
2018-03-08T04:12:21.689Z,14.27
2018-03-08T04:14:50.039Z,14.05
2018-03-08T04:17:17.614Z,12.45
2018-03-08T04:19:45.200Z,13.57
2018-03-08T04:22:13.544Z,14.63
2018-03-08T04:24:41.125Z,14.35
2018-03-08T04:27:08.702Z,14.35
2018-03-08T04:29:37.051Z,13.73
2018-03-08T04:32:04.630Z,14.13
2018-03-08T04:34:32.205Z,13.48
2018-03-08T04:36:59.786Z,13.82
2018-03-08T04:39:28.178Z,13.20
2018-03-08T04:41:56.530Z,14.90
2018-03-08T04:44:24.110Z,13.93
2018-03-08T04:46:52.463Z,13.07
2018-03-08T04:49:25.130Z,13.98
2018-03-08T04:51:52.710Z,12.70
2018-03-08T04:54:20.347Z,13.38
2018-03-08T04:56:48.360Z,12.30
2018-03-08T04:59:16.732Z,12.93
2018-03-08T05:01:45.126Z,12.57
2018-03-08T05:04:12.711Z,15.15
2018-03-08T05:06:41.054Z,13.40
2018-03-08T05:09:08.634Z,11.35
2018-03-08T05:11:37.142Z,11.25
2018-03-08T05:14:05.490Z,10.82
2018-03-08T05:16:33.109Z,11.30
2018-03-08T05:19:01.448Z,10.98
2018-03-08T05:21:29.026Z,11.55
2018-03-08T05:23:56.606Z,11.85
2018-03-08T05:26:24.951Z,10.75
2018-03-08T05:28:52.534Z,12.07
2018-03-08T05:31:20.115Z,12.20
2018-03-08T05:33:48.467Z,11.00
2018-03-08T05:36:16.046Z,11.45
2018-03-08T05:38:43.622Z,13.15
2018-03-08T05:41:11.979Z,11.90
2018-03-08T05:43:39.566Z,12.35
2018-03-08T05:46:07.914Z,12.57
2018-03-08T05:48:35.536Z,12.27
2018-03-08T05:51:03.876Z,12.37
2018-03-08T05:53:31.454Z,11.45
2018-03-08T05:55:59.039Z,12.00
2018-03-08T05:58:27.383Z,12.10
2018-03-08T06:00:54.962Z,12.43
2018-03-08T06:03:22.604Z,12.55
2018-03-08T06:05:50.183Z,14.02
2018-03-08T06:08:17.766Z,14.27
2018-03-08T06:10:46.117Z,14.00
2018-03-08T06:13:13.703Z,12.70
2018-03-08T06:15:41.283Z,13.70
2018-03-08T06:18:09.630Z,13.38
2018-03-08T06:20:37.237Z,13.25
2018-03-08T06:23:04.825Z,13.23
2018-03-08T06:25:32.450Z,13.48
2018-03-08T06:28:00.031Z,13.52
2018-03-08T06:30:28.379Z,13.60
2018-03-08T06:32:55.959Z,14.45
2018-03-08T06:35:24.316Z,12.77
2018-03-08T06:37:51.898Z,13.18
2018-03-08T06:40:19.475Z,14.00
2018-03-08T06:42:47.828Z,13.20
2018-03-08T06:45:15.412Z,14.85
2018-03-08T06:47:42.994Z,13.45
2018-03-08T06:50:11.378Z,14.95
2018-03-08T06:52:39.732Z,16.80
2018-03-08T06:55:07.319Z,13.90
2018-03-08T06:57:35.671Z,16.25
2018-03-08T07:00:03.318Z,15.25
2018-03-08T07:02:30.903Z,16.40
2018-03-08T07:04:58.482Z,15.38
2018-03-08T07:07:26.058Z,14.60
2018-03-08T07:09:54.437Z,14.95
2018-03-08T07:12:22.011Z,13.27
2018-03-08T07:14:50.354Z,13.38
2018-03-08T07:17:17.930Z,14.05
2018-03-08T07:19:45.507Z,13.85
2018-03-08T07:22:13.086Z,14.43
2018-03-08T07:24:41.455Z,17.85
2018-03-08T07:27:09.035Z,14.48
2018-03-08T07:29:37.378Z,14.63
2018-03-08T07:32:04.960Z,14.02
2018-03-08T07:34:32.550Z,14.32
2018-03-08T07:37:00.890Z,14.30
2018-03-08T07:39:28.479Z,15.10
2018-03-08T07:41:56.099Z,12.77
2018-03-08T07:44:23.683Z,15.18
2018-03-08T07:46:51.270Z,15.55
2018-03-08T07:49:18.855Z,15.65
2018-03-08T07:51:47.228Z,14.80
2018-03-08T07:54:15.574Z,13.50
2018-03-08T07:56:43.150Z,13.32
2018-03-08T07:59:10.735Z,13.35
2018-03-08T08:01:38.899Z,13.05
2018-03-08T08:04:06.478Z,12.60
2018-03-08T08:09:35.835Z,13.70
2018-03-08T08:12:03.418Z,13.00
2018-03-08T08:14:30.994Z,13.90
2018-03-08T08:16:58.575Z,12.65
2018-03-08T08:19:26.155Z,14.85
2018-03-08T08:21:54.502Z,12.50
2018-03-08T08:24:22.086Z,13.02
2018-03-08T08:26:49.671Z,13.32
2018-03-08T08:29:18.028Z,14.07
2018-03-08T08:31:45.652Z,17.58
2018-03-08T08:34:13.216Z,13.90
2018-03-08T08:36:40.800Z,12.15
2018-03-08T08:39:08.391Z,12.55
2018-03-08T08:41:35.975Z,13.23
2018-03-08T08:44:04.323Z,11.60
2018-03-08T08:46:31.907Z,12.40
2018-03-08T08:48:59.486Z,11.63
2018-03-08T08:51:27.831Z,12.10
2018-03-08T08:53:55.415Z,12.88
2018-03-08T08:56:22.995Z,11.50
2018-03-08T08:58:51.351Z,11.35
2018-03-08T09:01:18.934Z,11.60
2018-03-08T09:03:46.555Z,10.68
2018-03-08T09:06:14.154Z,10.70
2018-03-08T09:08:41.739Z,10.48
2018-03-08T09:11:10.084Z,10.32
2018-03-08T09:13:37.671Z,11.30
2018-03-08T09:16:05.250Z,10.60
2018-03-08T09:18:33.602Z,10.48
2018-03-08T09:21:01.188Z,10.88
2018-03-08T09:23:29.535Z,10.77
2018-03-08T09:25:57.170Z,10.25
2018-03-08T09:28:24.747Z,9.98
2018-03-08T09:30:52.332Z,11.00
2018-03-08T09:33:19.919Z,9.60
2018-03-08T09:35:47.497Z,10.75
2018-03-08T09:38:15.842Z,11.88
2018-03-08T09:40:43.423Z,13.88
2018-03-08T09:43:11.010Z,10.60
2018-03-08T09:45:39.355Z,10.77
2018-03-08T09:48:06.939Z,10.63
2018-03-08T09:50:34.524Z,10.40
2018-03-08T09:53:02.875Z,10.90
2018-03-08T09:55:30.454Z,10.88
2018-03-08T09:57:58.035Z,10.50
2018-03-08T10:00:26.406Z,9.90
2018-03-08T10:02:53.991Z,10.65
2018-03-08T10:05:21.574Z,10.07
2018-03-08T10:07:49.163Z,9.48
2018-03-08T10:10:16.742Z,9.30
2018-03-08T10:12:44.364Z,9.75
2018-03-08T10:15:11.963Z,10.20
2018-03-08T10:17:39.563Z,10.68
2018-03-08T10:20:07.924Z,8.95
2018-03-08T10:22:35.524Z,9.90
2018-03-08T10:25:03.890Z,9.38
2018-03-08T10:27:31.483Z,10.25
2018-03-08T10:29:59.103Z,10.30
2018-03-08T10:32:26.690Z,9.60
2018-03-08T10:34:54.319Z,11.25
2018-03-08T10:37:21.905Z,10.30
2018-03-08T10:39:49.487Z,10.43
2018-03-08T10:42:17.832Z,11.25
2018-03-08T10:44:45.417Z,9.45
2018-03-08T10:47:13.012Z,9.70
2018-03-08T10:49:41.354Z,10.25
2018-03-08T10:52:08.934Z,10.52
2018-03-08T10:54:36.514Z,9.88
2018-03-08T10:57:04.866Z,9.98
2018-03-08T10:59:32.446Z,10.60
2018-03-08T11:02:02.895Z,9.43
2018-03-08T11:04:36.022Z,9.52
2018-03-08T11:07:03.610Z,10.05
2018-03-08T11:09:31.194Z,9.30
2018-03-08T11:11:58.786Z,10.35
2018-03-08T11:14:26.371Z,10.25
2018-03-08T11:16:53.947Z,8.93
2018-03-08T11:19:21.530Z,8.65
2018-03-08T11:21:49.110Z,9.45
2018-03-08T11:24:16.688Z,9.55
2018-03-08T11:26:45.092Z,10.00
2018-03-08T11:29:13.435Z,9.70
2018-03-08T11:31:41.018Z,10.27
2018-03-08T11:34:10.235Z,9.20
2018-03-08T11:36:38.594Z,9.63
2018-03-08T11:39:06.170Z,9.80
2018-03-08T11:41:34.518Z,9.38
2018-03-08T11:44:02.102Z,9.80
2018-03-08T11:46:29.687Z,9.30
2018-03-08T11:48:58.034Z,10.35
2018-03-08T11:51:25.612Z,8.93
2018-03-08T11:53:53.191Z,8.48
2018-03-08T11:56:21.544Z,7.93
2018-03-08T11:58:49.166Z,7.25
2018-03-08T12:01:16.771Z,6.82
2018-03-08T12:03:44.347Z,6.85
2018-03-08T12:06:11.923Z,6.15
2018-03-08T12:08:39.543Z,5.65
2018-03-08T12:11:07.135Z,5.62
2018-03-08T12:13:34.722Z,5.32
2018-03-08T12:16:02.303Z,5.50
2018-03-08T12:18:30.644Z,5.80
2018-03-08T12:20:58.228Z,4.85
2018-03-08T12:23:25.799Z,5.65
2018-03-08T12:25:53.379Z,4.28
2018-03-08T12:28:21.725Z,4.78
2018-03-08T12:30:49.302Z,4.85
2018-03-08T12:33:16.924Z,4.80
2018-03-08T12:35:44.503Z,4.75
2018-03-08T12:38:12.080Z,5.07
2018-03-08T12:40:39.703Z,4.90
2018-03-08T12:43:07.280Z,4.70
2018-03-08T12:45:34.858Z,4.90
2018-03-08T12:48:02.434Z,4.40
2018-03-08T12:50:30.008Z,5.00
2018-03-08T12:52:57.628Z,4.90
2018-03-08T12:55:25.202Z,4.70
2018-03-08T12:57:52.791Z,4.40
2018-03-08T13:00:20.366Z,4.45
2018-03-08T13:02:47.962Z,4.00
2018-03-08T13:05:16.302Z,3.78
2018-03-08T13:07:43.887Z,3.10
2018-03-08T13:10:11.463Z,3.00
2018-03-08T13:12:39.039Z,2.65
2018-03-08T13:15:07.382Z,2.80
2018-03-08T13:17:34.958Z,3.58
2018-03-08T13:20:02.534Z,3.37
2018-03-08T13:22:30.114Z,4.22
2018-03-08T13:24:58.459Z,2.22
2018-03-08T13:27:26.038Z,1.90
2018-03-08T13:29:53.666Z,1.80
2018-03-08T13:32:21.251Z,2.45
2018-03-08T13:34:48.827Z,2.03
2018-03-08T13:37:16.426Z,1.80
2018-03-08T13:39:44.767Z,2.25
2018-03-08T13:42:12.354Z,3.35
2018-03-08T13:44:39.972Z,2.58
2018-03-08T13:47:07.554Z,1.40
2018-03-08T13:49:36.954Z,2.10
2018-03-08T13:52:04.537Z,2.20
2018-03-08T13:54:32.159Z,1.50
2018-03-08T13:56:59.739Z,1.50
2018-03-08T13:59:27.336Z,2.45
2018-03-08T14:01:54.910Z,2.95
2018-03-08T14:04:22.500Z,2.65
2018-03-08T14:06:50.848Z,2.20
2018-03-08T14:09:18.432Z,2.28
2018-03-08T14:11:46.011Z,2.15
2018-03-08T14:14:14.350Z,2.03
2018-03-08T14:16:41.932Z,2.20
2018-03-08T14:19:09.515Z,2.28
2018-03-08T14:21:37.866Z,2.22
2018-03-08T14:24:06.230Z,2.05
2018-03-08T14:26:33.826Z,2.53
2018-03-08T14:29:01.414Z,2.97
2018-03-08T14:31:29.013Z,2.45
2018-03-08T14:33:56.592Z,2.10
2018-03-08T14:36:24.166Z,3.08
2018-03-08T14:38:51.746Z,2.20
2018-03-08T14:41:20.255Z,2.40
2018-03-08T14:43:48.599Z,2.05
2018-03-08T14:46:16.174Z,2.75
2018-03-08T14:48:43.746Z,2.78
2018-03-08T14:51:11.327Z,3.20
2018-03-08T14:53:39.672Z,2.80
2018-03-08T14:56:08.017Z,2.20
2018-03-08T14:58:35.606Z,2.40
2018-03-08T15:01:03.236Z,2.47
2018-03-08T15:03:30.842Z,1.80
2018-03-08T15:05:58.422Z,1.90
2018-03-08T15:08:26.771Z,1.85
2018-03-08T15:10:54.352Z,2.25
2018-03-08T15:13:21.927Z,2.30
2018-03-08T15:15:49.503Z,2.55
2018-03-08T15:18:17.112Z,1.60
2018-03-08T15:20:45.447Z,1.95
2018-03-08T15:23:13.034Z,2.05
2018-03-08T15:25:40.610Z,1.75
2018-03-08T15:28:08.950Z,2.08
2018-03-08T15:30:36.533Z,2.00
2018-03-08T15:33:04.107Z,2.08
2018-03-08T15:35:31.686Z,1.50
2018-03-08T15:38:00.031Z,2.53
2018-03-08T15:40:27.615Z,2.35
2018-03-08T15:42:55.195Z,2.00
2018-03-08T15:45:23.543Z,1.70
2018-03-08T15:47:51.134Z,1.62
2018-03-08T15:50:19.474Z,2.00
2018-03-08T15:52:47.050Z,6.20
2018-03-08T15:55:14.630Z,6.82
2018-03-08T15:57:42.207Z,3.00
2018-03-08T16:00:09.791Z,3.25
2018-03-08T16:02:38.135Z,3.03
2018-03-08T16:05:05.782Z,2.17
2018-03-08T16:07:45.175Z,4.85
2018-03-08T16:10:30.503Z,4.15
2018-03-08T16:12:58.123Z,2.50
2018-03-08T16:15:25.806Z,2.62
2018-03-08T16:17:53.387Z,2.58
2018-03-08T16:20:20.963Z,2.85
2018-03-08T16:22:48.544Z,2.53
2018-03-08T16:25:16.142Z,2.53
2018-03-08T16:27:43.719Z,3.15
2018-03-08T16:30:11.375Z,3.08
2018-03-08T16:32:38.951Z,2.45
2018-03-08T16:35:06.570Z,3.37
2018-03-08T16:37:34.151Z,4.80
2018-03-08T16:40:02.498Z,3.30
2018-03-08T16:42:30.071Z,3.45
2018-03-08T16:44:57.652Z,4.82
2018-03-08T16:47:26.559Z,4.12
2018-03-08T16:49:54.911Z,3.83
2018-03-08T16:52:22.491Z,4.65
2018-03-08T16:54:50.071Z,2.92
2018-03-08T16:57:18.422Z,8.63
2018-03-08T16:59:46.000Z,4.40
2018-03-08T17:02:13.589Z,2.70
2018-03-08T17:04:41.927Z,3.08
2018-03-08T17:07:09.543Z,3.53
2018-03-08T17:09:37.135Z,3.53
2018-03-08T17:12:04.707Z,3.30
2018-03-08T17:14:32.309Z,4.12
2018-03-08T17:17:00.664Z,6.82
2018-03-08T17:19:28.255Z,6.12
2018-03-08T17:21:56.639Z,10.20
2018-03-08T17:24:24.222Z,11.05
2018-03-08T17:26:52.566Z,14.90
2018-03-08T17:29:20.156Z,16.52
2018-03-08T17:31:48.503Z,17.37
2018-03-08T17:34:16.087Z,15.93
2018-03-08T17:36:43.666Z,14.05
2018-03-08T17:39:12.015Z,14.27
2018-03-08T17:41:39.600Z,13.00
2018-03-08T17:44:07.188Z,12.68
2018-03-08T17:46:35.530Z,14.40
2018-03-08T17:49:03.906Z,19.40
2018-03-08T17:51:31.492Z,16.42
2018-03-08T17:53:59.082Z,15.23
2018-03-08T17:56:26.669Z,15.02
2018-03-08T17:58:54.254Z,10.40
2018-03-08T18:01:21.843Z,13.10
2018-03-08T18:03:51.279Z,22.55
2018-03-08T18:06:19.662Z,17.27
2018-03-08T18:08:48.011Z,20.20
2018-03-08T18:11:15.612Z,37.50
2018-03-08T18:13:44.028Z,24.15
2018-03-08T18:16:11.606Z,15.88
2018-03-08T18:18:39.191Z,21.65
2018-03-08T18:21:06.783Z,18.35
2018-03-08T18:23:35.230Z,25.60
2018-03-08T18:26:02.813Z,25.60
2018-03-08T18:28:30.504Z,15.75
2018-03-08T18:30:58.861Z,12.60
2018-03-08T18:33:26.447Z,10.32
2018-03-08T18:35:54.791Z,6.87
2018-03-08T18:38:22.387Z,7.95
2018-03-08T18:40:50.763Z,5.50
2018-03-08T18:43:18.338Z,5.95
2018-03-08T18:45:45.925Z,6.03
2018-03-08T18:48:13.616Z,5.95
2018-03-08T18:50:41.215Z,6.10
2018-03-08T18:53:08.794Z,5.40
2018-03-08T18:55:36.380Z,5.45
2018-03-08T18:58:16.657Z,5.87
2018-03-08T19:00:44.235Z,5.70
2018-03-08T19:03:11.811Z,5.00
2018-03-08T19:05:39.398Z,4.65
2018-03-08T19:08:06.974Z,5.03
2018-03-08T19:10:34.557Z,4.85
2018-03-08T19:13:02.929Z,5.65
2018-03-08T19:15:31.279Z,5.43
2018-03-08T19:17:58.860Z,5.37
2018-03-08T19:20:26.439Z,7.32
2018-03-08T19:22:54.792Z,6.07
2018-03-08T19:25:22.375Z,6.18
2018-03-08T19:27:49.982Z,6.55
2018-03-08T19:30:17.620Z,5.95
2018-03-08T19:32:46.015Z,5.00
2018-03-08T19:35:13.595Z,3.95
2018-03-08T19:37:41.176Z,4.80
2018-03-08T19:40:08.824Z,4.28
2018-03-08T19:42:36.511Z,4.12
2018-03-08T19:45:04.119Z,4.25
2018-03-08T19:47:32.475Z,4.45
2018-03-08T19:50:00.059Z,5.05
2018-03-08T19:52:27.648Z,4.65
2018-03-08T19:54:55.294Z,4.85
2018-03-08T19:57:22.873Z,5.37
2018-03-08T19:59:51.220Z,4.35
2018-03-08T20:02:18.823Z,4.45
2018-03-08T20:04:47.174Z,4.03
2018-03-08T20:07:14.746Z,3.70
2018-03-08T20:09:42.374Z,3.45
2018-03-08T20:12:09.981Z,3.53
2018-03-08T20:14:37.571Z,3.75
2018-03-08T20:17:05.150Z,3.10
2018-03-08T20:19:32.731Z,3.65
2018-03-08T20:22:00.315Z,3.67
2018-03-08T20:24:28.715Z,3.60
2018-03-08T20:26:57.232Z,4.15
2018-03-08T20:29:25.578Z,4.10
2018-03-08T20:31:53.159Z,4.07
2018-03-08T20:34:20.750Z,3.70
2018-03-08T20:36:48.328Z,4.07
2018-03-08T20:39:15.911Z,3.35
2018-03-08T20:41:43.511Z,5.32
2018-03-08T20:44:11.711Z,4.53
2018-03-08T20:46:40.058Z,4.03
2018-03-08T20:49:08.575Z,3.95
2018-03-08T20:51:37.599Z,4.10
2018-03-08T20:54:05.191Z,3.95
2018-03-08T20:56:32.766Z,3.95
2018-03-08T20:59:00.342Z,3.25
2018-03-08T21:01:27.926Z,3.60
2018-03-08T21:03:56.270Z,3.45
2018-03-08T21:06:23.869Z,4.03
2018-03-08T21:08:51.450Z,3.08
2018-03-08T21:11:20.410Z,3.67
2018-03-08T21:13:48.019Z,3.50
2018-03-08T21:16:15.646Z,3.50
2018-03-08T21:18:43.310Z,3.70
2018-03-08T21:21:10.894Z,4.75
2018-03-08T21:23:39.255Z,4.65
2018-03-08T21:26:06.831Z,5.03
2018-03-08T21:28:34.411Z,4.97
2018-03-08T21:31:02.759Z,3.92
2018-03-08T21:33:30.352Z,4.20
2018-03-08T21:35:58.698Z,4.80
2018-03-08T21:38:26.274Z,5.20
2018-03-08T21:40:53.854Z,4.00
2018-03-08T21:43:21.430Z,3.80
2018-03-08T21:45:49.775Z,4.47
2018-03-08T21:48:17.354Z,4.35
2018-03-08T21:50:44.938Z,4.10
2018-03-08T21:53:12.514Z,4.53
2018-03-08T21:55:40.859Z,3.80
2018-03-08T21:58:08.447Z,3.92
2018-03-08T22:00:36.850Z,4.10
2018-03-08T22:03:05.242Z,4.07
2018-03-08T22:05:33.735Z,4.30
2018-03-08T22:08:01.319Z,4.68
2018-03-08T22:10:28.899Z,4.65
2018-03-08T22:12:56.481Z,4.22
2018-03-08T22:15:24.055Z,3.53
2018-03-08T22:17:51.634Z,4.45
2018-03-08T22:20:19.978Z,4.75
2018-03-08T22:22:47.554Z,4.40
2018-03-08T22:25:15.143Z,4.57
2018-03-08T22:27:43.485Z,4.30
2018-03-08T22:30:11.067Z,5.32
2018-03-08T22:32:38.646Z,3.75
2018-03-08T22:35:06.987Z,4.00
2018-03-08T22:37:34.562Z,3.90
2018-03-08T22:40:02.139Z,3.65
2018-03-08T22:42:29.736Z,3.30
2018-03-08T22:44:58.074Z,3.45
2018-03-08T22:47:25.654Z,3.42
2018-03-08T22:49:53.238Z,4.20
2018-03-08T22:52:21.581Z,4.60
2018-03-08T22:54:49.159Z,4.70
2018-03-08T22:57:16.747Z,4.93
2018-03-08T22:59:45.139Z,5.60
2018-03-08T23:02:14.457Z,6.00
2018-03-08T23:04:42.035Z,5.43
2018-03-08T23:07:09.611Z,6.40
2018-03-08T23:09:37.195Z,5.95
2018-03-08T23:12:04.791Z,6.30
2018-03-08T23:14:33.140Z,5.85
2018-03-08T23:17:00.723Z,6.55
2018-03-08T23:19:28.306Z,6.43
2018-03-08T23:21:56.653Z,6.40
2018-03-08T23:24:24.234Z,7.78
2018-03-08T23:26:51.814Z,6.70
2018-03-08T23:29:21.154Z,7.07
2018-03-08T23:31:48.736Z,6.82
2018-03-08T23:34:16.319Z,6.05
2018-03-08T23:36:43.895Z,5.87
2018-03-08T23:39:11.479Z,6.37
2018-03-08T23:41:39.829Z,6.03
2018-03-08T23:44:07.455Z,8.77
2018-03-08T23:46:35.031Z,8.07
2018-03-08T23:49:02.606Z,4.68
2018-03-08T23:51:30.191Z,4.53
2018-03-08T23:53:58.531Z,4.12
2018-03-08T23:56:26.115Z,3.75
2018-03-08T23:58:53.686Z,3.90
